createdAt,value
2019-02-21T00:00:38.058Z,99.99
2019-02-21T00:01:37.786Z,99.99
2019-02-21T00:02:37.768Z,99.99
2019-02-21T00:03:37.803Z,99.99
2019-02-21T00:04:37.760Z,99.99
2019-02-21T00:05:37.738Z,99.99
2019-02-21T00:06:37.724Z,99.99
2019-02-21T00:07:37.729Z,99.99
2019-02-21T00:08:37.738Z,99.99
2019-02-21T00:09:37.706Z,99.99
2019-02-21T00:10:37.686Z,99.99
2019-02-21T00:11:38.317Z,99.99
2019-02-21T00:12:37.685Z,99.99
2019-02-21T00:13:37.686Z,99.99
2019-02-21T00:14:37.645Z,99.99
2019-02-21T00:15:37.636Z,99.99
2019-02-21T00:16:37.628Z,99.99
2019-02-21T00:17:37.625Z,99.99
2019-02-21T00:18:37.642Z,99.99
2019-02-21T00:19:37.594Z,99.99
2019-02-21T00:20:37.588Z,99.99
2019-02-21T00:21:37.589Z,99.99
2019-02-21T00:22:37.569Z,99.99
2019-02-21T00:23:37.584Z,99.99
2019-02-21T00:24:39.952Z,99.99
2019-02-21T00:25:37.536Z,99.99
2019-02-21T00:26:37.528Z,99.99
2019-02-21T00:27:37.522Z,99.99
2019-02-21T00:28:37.532Z,99.99
2019-02-21T00:29:37.507Z,99.99
2019-02-21T00:30:37.489Z,99.99
2019-02-21T00:31:39.902Z,99.99
2019-02-21T00:32:37.469Z,99.99
2019-02-21T00:33:37.482Z,99.99
2019-02-21T00:34:37.556Z,99.99
2019-02-21T00:35:37.432Z,99.99
2019-02-21T00:36:37.433Z,99.99
2019-02-21T00:37:37.414Z,99.99
2019-02-21T00:38:37.471Z,99.99
2019-02-21T00:39:37.394Z,99.99
2019-02-21T00:40:37.384Z,99.99
2019-02-21T00:41:37.372Z,99.99
2019-02-21T00:42:37.375Z,99.99
2019-02-21T00:43:37.386Z,99.99
2019-02-21T00:44:37.348Z,99.99
2019-02-21T00:45:37.343Z,99.99
2019-02-21T00:46:37.324Z,99.99
2019-02-21T00:47:37.311Z,99.99
2019-02-21T00:48:37.332Z,99.99
2019-02-21T00:49:37.292Z,99.99
2019-02-21T00:50:37.283Z,99.99
2019-02-21T00:51:37.276Z,99.99
2019-02-21T00:52:37.262Z,99.99
2019-02-21T00:53:37.278Z,99.99
2019-02-21T00:54:37.244Z,99.99
2019-02-21T00:55:37.317Z,99.99
2019-02-21T00:56:37.221Z,99.99
2019-02-21T00:57:37.208Z,99.99
2019-02-21T00:58:37.225Z,99.99
2019-02-21T00:59:37.201Z,99.99
2019-02-21T01:00:45.982Z,99.99
2019-02-21T01:01:38.163Z,99.99
2019-02-21T01:02:37.160Z,99.99
2019-02-21T01:03:37.185Z,99.99
2019-02-21T01:04:37.136Z,99.99
2019-02-21T01:05:37.134Z,99.99
2019-02-21T01:06:37.118Z,99.99
2019-02-21T01:07:37.106Z,99.99
2019-02-21T01:08:37.098Z,99.99
2019-02-21T01:09:37.117Z,99.99
2019-02-21T01:10:37.083Z,99.99
2019-02-21T01:11:37.068Z,99.99
2019-02-21T01:12:37.060Z,99.99
2019-02-21T01:13:37.053Z,99.99
2019-02-21T01:14:37.066Z,99.99
2019-02-21T01:15:37.027Z,99.99
2019-02-21T01:16:37.303Z,99.99
2019-02-21T01:17:37.010Z,99.99
2019-02-21T01:18:36.997Z,99.99
2019-02-21T01:19:37.028Z,99.99
2019-02-21T01:20:36.976Z,99.99
2019-02-21T01:21:36.966Z,99.99
2019-02-21T01:22:36.959Z,99.99
2019-02-21T01:23:36.949Z,99.99
2019-02-21T01:24:36.965Z,99.99
2019-02-21T01:25:36.926Z,99.99
2019-02-21T01:26:36.922Z,99.99
2019-02-21T01:27:36.908Z,99.99
2019-02-21T01:28:36.894Z,99.99
2019-02-21T01:29:36.915Z,99.99
2019-02-21T01:30:36.873Z,99.99
2019-02-21T01:31:37.054Z,99.99
2019-02-21T01:32:36.855Z,99.99
2019-02-21T01:33:37.000Z,99.99
2019-02-21T01:34:36.871Z,99.99
2019-02-21T01:35:36.823Z,99.99
2019-02-21T01:36:36.819Z,99.99
2019-02-21T01:37:36.807Z,99.99
2019-02-21T01:38:36.800Z,99.99
2019-02-21T01:39:36.808Z,99.99
2019-02-21T01:40:36.776Z,99.99
2019-02-21T01:41:36.758Z,99.99
2019-02-21T01:42:37.477Z,99.99
2019-02-21T01:43:37.447Z,99.99
2019-02-21T01:44:36.774Z,99.99
2019-02-21T01:45:36.753Z,99.99
2019-02-21T01:46:36.713Z,99.99
2019-02-21T01:47:36.703Z,99.99
2019-02-21T01:48:36.692Z,99.99
2019-02-21T01:49:36.726Z,99.99
2019-02-21T01:50:36.671Z,99.99
2019-02-21T01:51:36.656Z,99.99
2019-02-21T01:52:36.653Z,99.99
2019-02-21T01:53:36.642Z,99.99
2019-02-21T01:54:36.636Z,99.99
2019-02-21T01:55:36.653Z,99.99
2019-02-21T01:56:36.606Z,99.99
2019-02-21T01:57:36.594Z,99.99
2019-02-21T01:58:36.592Z,99.99
2019-02-21T01:59:36.607Z,99.99
2019-02-21T02:00:36.569Z,99.99
2019-02-21T02:01:36.557Z,99.99
2019-02-21T02:02:36.550Z,99.99
2019-02-21T02:03:36.564Z,99.99
2019-02-21T02:04:36.576Z,99.99
2019-02-21T02:05:36.531Z,99.99
2019-02-21T02:06:36.519Z,99.99
2019-02-21T02:07:36.498Z,99.99
2019-02-21T02:08:36.483Z,99.99
2019-02-21T02:09:36.520Z,99.99
2019-02-21T02:10:36.472Z,99.99
2019-02-21T02:11:36.463Z,99.99
2019-02-21T02:12:36.472Z,99.99
2019-02-21T02:13:36.444Z,99.99
2019-02-21T02:14:36.425Z,99.99
2019-02-21T02:15:36.459Z,99.99
2019-02-21T02:16:36.408Z,99.99
2019-02-21T02:17:36.442Z,99.99
2019-02-21T02:18:36.387Z,99.99
2019-02-21T02:19:36.383Z,99.99
2019-02-21T02:20:36.373Z,99.99
2019-02-21T02:21:36.361Z,99.99
2019-02-21T02:22:36.357Z,99.99
2019-02-21T02:23:36.736Z,99.99
2019-02-21T02:24:36.350Z,99.99
2019-02-21T02:25:36.334Z,99.99
2019-02-21T02:26:36.312Z,99.99
2019-02-21T02:27:36.301Z,99.99
2019-02-21T02:28:36.317Z,99.99
2019-02-21T02:29:36.311Z,99.99
2019-02-21T02:30:36.276Z,99.99
2019-02-21T02:31:36.273Z,99.99
2019-02-21T02:32:36.250Z,99.99
2019-02-21T02:33:36.243Z,99.99
2019-02-21T02:34:36.295Z,99.99
2019-02-21T02:35:36.225Z,99.99
2019-02-21T02:36:36.210Z,99.99
2019-02-21T02:37:36.211Z,99.99
2019-02-21T02:38:36.185Z,99.99
2019-02-21T02:39:36.212Z,99.99
2019-02-21T02:40:36.168Z,99.99
2019-02-21T02:41:36.159Z,99.99
2019-02-21T02:42:36.148Z,99.99
2019-02-21T02:43:36.133Z,99.99
2019-02-21T02:44:38.427Z,99.99
2019-02-21T02:45:36.129Z,99.99
2019-02-21T02:46:36.132Z,99.99
2019-02-21T02:47:36.097Z,99.99
2019-02-21T02:48:36.098Z,99.99
2019-02-21T02:49:36.125Z,99.99
2019-02-21T02:50:36.068Z,99.99
2019-02-21T02:51:36.060Z,99.99
2019-02-21T02:52:36.049Z,99.99
2019-02-21T02:53:36.039Z,99.99
2019-02-21T02:54:36.059Z,99.99
2019-02-21T02:55:36.018Z,99.99
2019-02-21T02:56:36.013Z,99.99
2019-02-21T02:57:36.010Z,99.99
2019-02-21T02:58:35.984Z,99.99
2019-02-21T02:59:40.678Z,99.99
2019-02-21T03:00:37.005Z,99.99
2019-02-21T03:01:35.960Z,99.99
2019-02-21T03:02:35.948Z,99.99
2019-02-21T03:03:36.324Z,99.99
2019-02-21T03:04:35.952Z,99.99
2019-02-21T03:05:35.951Z,99.99
2019-02-21T03:06:35.946Z,99.99
2019-02-21T03:07:35.898Z,99.99
2019-02-21T03:08:35.886Z,99.99
2019-02-21T03:09:35.878Z,99.99
2019-02-21T03:10:36.270Z,99.99
2019-02-21T03:11:36.046Z,99.99
2019-02-21T03:12:36.091Z,99.99
2019-02-21T03:13:36.060Z,99.99
2019-02-21T03:14:36.038Z,99.99
2019-02-21T03:15:36.234Z,99.99
2019-02-21T03:16:36.473Z,99.99
2019-02-21T03:17:36.045Z,99.99
2019-02-21T03:18:36.010Z,99.99
2019-02-21T03:19:36.032Z,99.99
2019-02-21T03:20:35.895Z,99.99
2019-02-21T03:21:35.810Z,99.99
2019-02-21T03:22:35.919Z,99.99
2019-02-21T03:23:35.791Z,99.99
2019-02-21T03:24:35.787Z,99.99
2019-02-21T03:25:35.828Z,99.99
2019-02-21T03:26:35.763Z,99.99
2019-02-21T03:27:35.757Z,99.99
2019-02-21T03:28:36.481Z,99.99
2019-02-21T03:29:35.734Z,99.99
2019-02-21T03:30:35.805Z,99.99
2019-02-21T03:31:52.650Z,99.99
2019-02-21T03:32:36.700Z,99.99
2019-02-21T03:33:35.695Z,99.99
2019-02-21T03:34:35.684Z,99.99
2019-02-21T03:35:35.753Z,99.99
2019-02-21T03:36:35.668Z,99.99
2019-02-21T03:37:35.658Z,99.99
2019-02-21T03:38:35.907Z,99.99
2019-02-21T03:39:35.634Z,99.99
2019-02-21T03:40:35.708Z,99.99
2019-02-21T03:41:35.617Z,99.99
2019-02-21T03:42:35.591Z,99.99
2019-02-21T03:43:35.572Z,99.99
2019-02-21T03:44:35.579Z,99.99
2019-02-21T03:45:35.663Z,99.99
2019-02-21T03:46:35.569Z,99.99
2019-02-21T03:47:35.541Z,99.99
2019-02-21T03:48:35.552Z,99.99
2019-02-21T03:49:35.519Z,99.99
2019-02-21T03:50:35.592Z,99.99
2019-02-21T03:51:35.511Z,99.99
2019-02-21T03:52:35.497Z,99.99
2019-02-21T03:53:35.493Z,99.99
2019-02-21T03:54:35.479Z,99.99
2019-02-21T03:55:38.640Z,99.99
2019-02-21T03:56:35.466Z,99.99
2019-02-21T03:57:35.450Z,99.99
2019-02-21T03:58:35.439Z,99.99
2019-02-21T03:59:35.440Z,99.99
2019-02-21T04:00:35.507Z,99.99
2019-02-21T04:01:35.403Z,99.99
2019-02-21T04:02:35.398Z,99.99
2019-02-21T04:03:35.426Z,99.99
2019-02-21T04:04:35.378Z,99.99
2019-02-21T04:05:35.448Z,99.99
2019-02-21T04:06:35.345Z,99.99
2019-02-21T04:07:35.412Z,99.99
2019-02-21T04:08:35.332Z,99.99
2019-02-21T04:09:35.330Z,99.99
2019-02-21T04:10:35.387Z,99.99
2019-02-21T04:11:35.378Z,99.99
2019-02-21T04:12:35.292Z,99.99
2019-02-21T04:13:35.280Z,99.99
2019-02-21T04:14:35.318Z,99.99
2019-02-21T04:15:35.265Z,99.99
2019-02-21T04:16:37.970Z,99.99
2019-02-21T04:17:35.227Z,99.99
2019-02-21T04:18:35.229Z,99.99
2019-02-21T04:19:35.227Z,99.99
2019-02-21T04:20:35.202Z,99.99
2019-02-21T04:21:35.250Z,99.99
2019-02-21T04:22:35.208Z,99.99
2019-02-21T04:23:35.163Z,99.99
2019-02-21T04:24:35.136Z,99.99
2019-02-21T04:25:35.130Z,99.99
2019-02-21T04:26:35.174Z,99.99
2019-02-21T04:27:35.120Z,99.99
2019-02-21T04:28:35.094Z,99.99
2019-02-21T04:29:35.097Z,99.99
2019-02-21T04:30:35.080Z,99.99
2019-02-21T04:31:35.097Z,99.99
2019-02-21T04:32:35.061Z,99.99
2019-02-21T04:33:35.061Z,99.99
2019-02-21T04:34:35.062Z,99.99
2019-02-21T04:35:35.984Z,99.99
2019-02-21T04:36:35.077Z,99.99
2019-02-21T04:37:35.037Z,99.99
2019-02-21T04:38:35.297Z,99.99
2019-02-21T04:39:34.992Z,99.99
2019-02-21T04:40:34.984Z,99.99
2019-02-21T04:41:34.965Z,99.99
2019-02-21T04:42:34.960Z,99.99
2019-02-21T04:43:34.981Z,99.99
2019-02-21T04:44:34.944Z,99.99
2019-02-21T04:45:34.932Z,99.99
2019-02-21T04:46:34.931Z,99.99
2019-02-21T04:47:34.943Z,99.99
2019-02-21T04:48:34.901Z,99.99
2019-02-21T04:49:34.925Z,99.99
2019-02-21T04:50:34.910Z,99.99
2019-02-21T04:51:34.881Z,99.99
2019-02-21T04:52:34.867Z,99.99
2019-02-21T04:53:34.858Z,99.99
2019-02-21T04:54:34.874Z,99.99
2019-02-21T04:55:34.836Z,99.99
2019-02-21T04:56:36.027Z,99.99
2019-02-21T04:57:34.818Z,99.99
2019-02-21T04:58:34.804Z,99.99
2019-02-21T04:59:34.787Z,99.99
2019-02-21T05:00:34.774Z,99.99
2019-02-21T05:01:34.788Z,99.99
2019-02-21T05:02:34.748Z,99.99
2019-02-21T05:03:34.764Z,99.99
2019-02-21T05:04:34.727Z,99.99
2019-02-21T05:05:34.795Z,99.99
2019-02-21T05:06:34.707Z,99.99
2019-02-21T05:07:35.970Z,99.99
2019-02-21T05:08:34.710Z,99.99
2019-02-21T05:09:34.685Z,99.99
2019-02-21T05:10:34.663Z,99.99
2019-02-21T05:11:34.687Z,99.99
2019-02-21T05:12:34.659Z,99.99
2019-02-21T05:13:34.638Z,99.99
2019-02-21T05:14:34.626Z,99.99
2019-02-21T05:15:34.615Z,99.99
2019-02-21T05:16:34.735Z,99.99
2019-02-21T05:17:34.600Z,99.99
2019-02-21T05:18:34.590Z,99.99
2019-02-21T05:19:34.577Z,99.99
2019-02-21T05:20:34.571Z,99.99
2019-02-21T05:21:34.591Z,99.99
2019-02-21T05:22:34.550Z,99.99
2019-02-21T05:23:36.701Z,99.99
2019-02-21T05:24:34.526Z,99.99
2019-02-21T05:25:34.524Z,99.99
2019-02-21T05:26:35.044Z,99.99
2019-02-21T05:27:34.496Z,99.99
2019-02-21T05:28:34.484Z,99.99
2019-02-21T05:29:34.479Z,99.99
2019-02-21T05:30:36.352Z,99.99
2019-02-21T05:31:34.458Z,99.99
2019-02-21T05:32:41.036Z,99.99
2019-02-21T05:33:35.432Z,99.99
2019-02-21T05:34:34.435Z,99.99
2019-02-21T05:35:34.422Z,99.99
2019-02-21T05:36:34.406Z,99.99
2019-02-21T05:37:34.424Z,99.99
2019-02-21T05:38:34.385Z,99.99
2019-02-21T05:39:34.377Z,99.99
2019-02-21T05:40:34.365Z,99.99
2019-02-21T05:41:34.362Z,99.99
2019-02-21T05:42:34.379Z,99.99
2019-02-21T05:43:37.112Z,99.99
2019-02-21T05:44:34.332Z,99.99
2019-02-21T05:45:34.326Z,99.99
2019-02-21T05:46:34.312Z,99.99
2019-02-21T05:47:34.335Z,99.99
2019-02-21T05:48:34.294Z,99.99
2019-02-21T05:49:34.277Z,99.99
2019-02-21T05:50:34.271Z,99.99
2019-02-21T05:51:34.262Z,99.99
2019-02-21T05:52:34.286Z,99.99
2019-02-21T05:53:34.239Z,99.99
2019-02-21T05:54:34.229Z,99.99
2019-02-21T05:55:34.258Z,99.99
2019-02-21T05:56:34.208Z,99.82
2019-02-21T05:57:34.230Z,99.76
2019-02-21T05:58:34.247Z,99.76
2019-02-21T05:59:34.175Z,99.99
2019-02-21T06:00:36.741Z,99.99
2019-02-21T06:01:34.164Z,99.99
2019-02-21T06:02:34.181Z,99.99
2019-02-21T06:03:35.978Z,99.99
2019-02-21T06:04:34.124Z,99.99
2019-02-21T06:05:34.130Z,99.99
2019-02-21T06:06:34.110Z,99.99
2019-02-21T06:07:34.131Z,99.99
2019-02-21T06:08:34.088Z,99.99
2019-02-21T06:09:34.083Z,99.99
2019-02-21T06:10:34.065Z,99.99
2019-02-21T06:11:35.129Z,99.99
2019-02-21T06:12:34.182Z,99.99
2019-02-21T06:13:34.046Z,99.99
2019-02-21T06:14:34.034Z,99.99
2019-02-21T06:15:34.021Z,99.99
2019-02-21T06:16:34.006Z,99.99
2019-02-21T06:17:34.333Z,99.99
2019-02-21T06:18:33.982Z,99.99
2019-02-21T06:19:33.978Z,99.99
2019-02-21T06:20:33.997Z,99.99
2019-02-21T06:21:33.957Z,99.99
2019-02-21T06:22:33.983Z,99.99
2019-02-21T06:23:33.946Z,99.98
2019-02-21T06:24:33.929Z,99.87
2019-02-21T06:25:33.923Z,99.13
2019-02-21T06:26:33.912Z,99.13
2019-02-21T06:27:34.645Z,98.92
2019-02-21T06:28:33.886Z,99.44
2019-02-21T06:29:34.239Z,99.55
2019-02-21T06:30:33.892Z,99.72
2019-02-21T06:31:33.863Z,99.61
2019-02-21T06:32:33.896Z,99.99
2019-02-21T06:33:33.843Z,99.99
2019-02-21T06:34:33.863Z,99.99
2019-02-21T06:35:33.826Z,99.51
2019-02-21T06:36:33.817Z,99.08
2019-02-21T06:37:33.836Z,99.19
2019-02-21T06:38:33.940Z,99.19
2019-02-21T06:39:33.782Z,98.87
2019-02-21T06:40:36.376Z,98.66
2019-02-21T06:41:33.760Z,98.66
2019-02-21T06:42:33.846Z,99.25
2019-02-21T06:43:33.735Z,99.88
2019-02-21T06:44:33.724Z,99.95
2019-02-21T06:45:33.718Z,99.63
2019-02-21T06:46:33.713Z,99.52
2019-02-21T06:47:33.731Z,98.99
2019-02-21T06:48:34.908Z,97.99
2019-02-21T06:49:33.683Z,97.25
2019-02-21T06:50:33.666Z,97.25
2019-02-21T06:51:33.658Z,96.47
2019-02-21T06:52:33.678Z,96.61
2019-02-21T06:53:33.645Z,97.20
2019-02-21T06:54:33.624Z,96.36
2019-02-21T06:55:33.623Z,96.67
2019-02-21T06:56:33.609Z,95.79
2019-02-21T06:57:33.651Z,95.15
2019-02-21T06:58:33.591Z,95.11
2019-02-21T06:59:41.890Z,95.91
2019-02-21T07:00:34.597Z,97.07
2019-02-21T07:01:33.562Z,96.92
2019-02-21T07:02:33.562Z,96.98
2019-02-21T07:03:33.567Z,97.09
2019-02-21T07:04:33.568Z,96.73
2019-02-21T07:05:33.521Z,96.69
2019-02-21T07:06:33.510Z,96.69
2019-02-21T07:07:33.510Z,95.59
2019-02-21T07:08:33.522Z,95.76
2019-02-21T07:09:33.482Z,94.49
2019-02-21T07:10:33.474Z,92.99
2019-02-21T07:11:33.480Z,91.94
2019-02-21T07:12:33.453Z,92.35
2019-02-21T07:13:33.468Z,92.52
2019-02-21T07:14:34.518Z,91.79
2019-02-21T07:15:33.445Z,92.16
2019-02-21T07:16:33.413Z,92.38
2019-02-21T07:17:33.394Z,92.27
2019-02-21T07:18:33.410Z,92.23
2019-02-21T07:19:33.457Z,93.13
2019-02-21T07:20:33.375Z,92.61
2019-02-21T07:21:33.360Z,92.98
2019-02-21T07:22:33.350Z,93.19
2019-02-21T07:23:43.153Z,91.89
2019-02-21T07:24:34.324Z,91.06
2019-02-21T07:25:33.317Z,90.39
2019-02-21T07:26:33.309Z,90.49
2019-02-21T07:27:33.297Z,90.39
2019-02-21T07:28:33.319Z,90.24
2019-02-21T07:29:33.275Z,90.09
2019-02-21T07:30:33.272Z,89.15
2019-02-21T07:31:33.262Z,88.28
2019-02-21T07:32:33.249Z,88.13
2019-02-21T07:33:33.268Z,87.68
2019-02-21T07:34:33.238Z,87.37
2019-02-21T07:35:33.217Z,86.91
2019-02-21T07:36:33.201Z,86.76
2019-02-21T07:37:33.203Z,88.08
2019-02-21T07:38:33.965Z,85.99
2019-02-21T07:39:36.003Z,84.64
2019-02-21T07:40:33.162Z,84.74
2019-02-21T07:41:33.151Z,84.50
2019-02-21T07:42:33.183Z,84.91
2019-02-21T07:43:33.178Z,83.97
2019-02-21T07:44:33.121Z,83.94
2019-02-21T07:45:33.510Z,84.31
2019-02-21T07:46:33.110Z,82.75
2019-02-21T07:47:33.089Z,83.03
2019-02-21T07:48:33.113Z,81.88
2019-02-21T07:49:33.076Z,82.15
2019-02-21T07:50:33.060Z,82.68
2019-02-21T07:51:33.051Z,83.58
2019-02-21T07:52:33.039Z,84.05
2019-02-21T07:53:33.064Z,84.05
2019-02-21T07:54:33.028Z,83.64
2019-02-21T07:55:33.007Z,83.53
2019-02-21T07:56:41.574Z,83.22
2019-02-21T07:57:33.992Z,82.91
2019-02-21T07:58:32.979Z,83.12
2019-02-21T07:59:32.999Z,83.18
2019-02-21T08:00:32.976Z,82.01
2019-02-21T08:01:32.964Z,80.83
2019-02-21T08:02:32.939Z,81.45
2019-02-21T08:03:43.774Z,81.10
2019-02-21T08:04:33.938Z,79.96
2019-02-21T08:05:32.916Z,80.33
2019-02-21T08:06:32.914Z,78.89
2019-02-21T08:07:32.891Z,78.27
2019-02-21T08:08:32.907Z,78.99
2019-02-21T08:09:32.874Z,79.16
2019-02-21T08:10:34.029Z,77.19
2019-02-21T08:11:32.845Z,76.74
2019-02-21T08:12:32.838Z,77.26
2019-02-21T08:13:32.850Z,78.57
2019-02-21T08:14:32.813Z,77.01
2019-02-21T08:15:32.805Z,76.09
2019-02-21T08:16:32.796Z,75.78
2019-02-21T08:17:32.783Z,75.43
2019-02-21T08:18:32.798Z,75.12
2019-02-21T08:19:32.777Z,75.12
2019-02-21T08:20:34.676Z,77.05
2019-02-21T08:21:33.863Z,74.95
2019-02-21T08:22:32.730Z,75.78
2019-02-21T08:23:32.746Z,74.84
2019-02-21T08:24:32.710Z,74.84
2019-02-21T08:25:32.705Z,77.81
2019-02-21T08:26:32.694Z,74.77
2019-02-21T08:27:35.209Z,75.29
2019-02-21T08:28:32.678Z,73.71
2019-02-21T08:29:32.688Z,74.63
2019-02-21T08:30:33.104Z,74.91
2019-02-21T08:31:32.640Z,74.57
2019-02-21T08:32:32.635Z,74.57
2019-02-21T08:33:32.615Z,74.43
2019-02-21T08:34:32.635Z,73.19
2019-02-21T08:35:32.618Z,72.64
2019-02-21T08:36:32.582Z,73.88
2019-02-21T08:37:32.571Z,72.64
2019-02-21T08:38:32.565Z,71.99
2019-02-21T08:39:32.594Z,71.69
2019-02-21T08:40:32.577Z,73.30
2019-02-21T08:41:32.538Z,75.01
2019-02-21T08:42:32.519Z,72.92
2019-02-21T08:43:32.510Z,72.47
2019-02-21T08:44:32.533Z,72.24
2019-02-21T08:45:32.488Z,70.28
2019-02-21T08:46:32.482Z,69.74
2019-02-21T08:47:32.476Z,67.96
2019-02-21T08:48:32.463Z,68.19
2019-02-21T08:49:32.535Z,70.22
2019-02-21T08:50:32.445Z,67.93
2019-02-21T08:51:32.453Z,66.70
2019-02-21T08:52:32.468Z,68.21
2019-02-21T08:53:32.462Z,67.90
2019-02-21T08:54:32.394Z,68.07
2019-02-21T08:55:32.429Z,66.22
2019-02-21T08:56:32.379Z,66.74
2019-02-21T08:57:32.375Z,66.33
2019-02-21T08:58:32.382Z,66.30
2019-02-21T08:59:32.385Z,65.99
2019-02-21T09:00:32.329Z,65.17
2019-02-21T09:01:32.331Z,65.24
2019-02-21T09:02:32.316Z,63.60
2019-02-21T09:03:32.299Z,63.91
2019-02-21T09:04:32.320Z,63.40
2019-02-21T09:05:32.293Z,64.12
2019-02-21T09:06:32.274Z,64.22
2019-02-21T09:07:32.262Z,64.39
2019-02-21T09:08:35.073Z,64.06
2019-02-21T09:09:33.480Z,65.25
2019-02-21T09:10:32.234Z,63.48
2019-02-21T09:11:32.221Z,63.25
2019-02-21T09:12:32.212Z,61.41
2019-02-21T09:13:32.195Z,61.35
2019-02-21T09:14:32.210Z,62.55
2019-02-21T09:15:32.185Z,60.17
2019-02-21T09:16:32.173Z,58.14
2019-02-21T09:17:32.283Z,58.95
2019-02-21T09:18:32.170Z,57.70
2019-02-21T09:19:32.137Z,57.21
2019-02-21T09:20:32.117Z,57.70
2019-02-21T09:21:32.105Z,56.91
2019-02-21T09:22:32.176Z,58.72
2019-02-21T09:23:32.089Z,56.85
2019-02-21T09:24:39.146Z,57.87
2019-02-21T09:25:33.071Z,56.55
2019-02-21T09:26:34.609Z,56.73
2019-02-21T09:27:32.046Z,57.62
2019-02-21T09:28:32.038Z,56.68
2019-02-21T09:29:32.231Z,53.39
2019-02-21T09:30:32.015Z,54.21
2019-02-21T09:31:32.003Z,51.34
2019-02-21T09:32:31.998Z,54.90
2019-02-21T09:33:31.992Z,53.24
2019-02-21T09:34:31.970Z,52.81
2019-02-21T09:35:31.992Z,50.88
2019-02-21T09:36:31.946Z,51.90
2019-02-21T09:37:31.936Z,51.87
2019-02-21T09:38:34.577Z,51.87
2019-02-21T09:39:31.915Z,50.73
2019-02-21T09:40:31.955Z,48.48
2019-02-21T09:41:31.902Z,47.77
2019-02-21T09:42:31.891Z,48.25
2019-02-21T09:43:31.906Z,48.27
2019-02-21T09:44:31.869Z,47.26
2019-02-21T09:45:32.880Z,48.96
2019-02-21T09:46:31.852Z,48.55
2019-02-21T09:47:31.832Z,48.13
2019-02-21T09:48:31.823Z,45.90
2019-02-21T09:49:31.848Z,45.70
2019-02-21T09:50:31.834Z,44.76
2019-02-21T09:51:31.798Z,46.36
2019-02-21T09:52:31.775Z,44.92
2019-02-21T09:53:31.779Z,45.53
2019-02-21T09:54:31.759Z,45.33
2019-02-21T09:55:31.795Z,43.97
2019-02-21T09:56:31.751Z,44.48
2019-02-21T09:57:31.724Z,43.75
2019-02-21T09:58:31.717Z,43.97
2019-02-21T09:59:31.717Z,44.37
2019-02-21T10:00:31.724Z,43.85
2019-02-21T10:01:31.693Z,44.34
2019-02-21T10:02:31.680Z,42.40
2019-02-21T10:03:31.661Z,43.08
2019-02-21T10:04:32.552Z,42.35
2019-02-21T10:05:31.674Z,40.44
2019-02-21T10:06:31.625Z,40.76
2019-02-21T10:07:31.622Z,40.98
2019-02-21T10:08:31.604Z,42.07
2019-02-21T10:09:31.623Z,41.25
2019-02-21T10:10:31.623Z,40.92
2019-02-21T10:11:31.574Z,39.51
2019-02-21T10:12:31.591Z,39.61
2019-02-21T10:13:31.557Z,39.72
2019-02-21T10:14:31.546Z,38.91
2019-02-21T10:15:31.645Z,38.39
2019-02-21T10:16:31.526Z,40.42
2019-02-21T10:17:31.739Z,39.73
2019-02-21T10:18:31.541Z,41.22
2019-02-21T10:19:31.491Z,40.20
2019-02-21T10:20:31.511Z,39.78
2019-02-21T10:21:31.477Z,38.45
2019-02-21T10:22:31.466Z,37.43
2019-02-21T10:23:31.450Z,39.54
2019-02-21T10:24:31.438Z,38.11
2019-02-21T10:25:31.462Z,38.09
2019-02-21T10:26:31.417Z,38.07
2019-02-21T10:27:31.412Z,36.75
2019-02-21T10:28:32.520Z,35.93
2019-02-21T10:29:31.387Z,36.35
2019-02-21T10:30:31.403Z,36.75
2019-02-21T10:31:31.360Z,35.73
2019-02-21T10:32:31.349Z,35.73
2019-02-21T10:33:31.335Z,34.73
2019-02-21T10:34:31.329Z,35.93
2019-02-21T10:35:31.347Z,34.81
2019-02-21T10:36:31.307Z,34.88
2019-02-21T10:37:31.293Z,35.36
2019-02-21T10:38:31.293Z,35.46
2019-02-21T10:39:31.288Z,34.24
2019-02-21T10:40:33.365Z,34.84
2019-02-21T10:41:31.254Z,34.11
2019-02-21T10:42:31.339Z,36.41
2019-02-21T10:43:31.230Z,35.50
2019-02-21T10:44:31.223Z,34.88
2019-02-21T10:45:31.217Z,35.28
2019-02-21T10:46:31.199Z,34.16
2019-02-21T10:47:31.202Z,34.48
2019-02-21T10:48:31.214Z,34.28
2019-02-21T10:49:31.178Z,31.77
2019-02-21T10:50:31.160Z,31.15
2019-02-21T10:51:31.196Z,31.65
2019-02-21T10:52:31.143Z,31.24
2019-02-21T10:53:31.131Z,32.51
2019-02-21T10:54:31.125Z,30.99
2019-02-21T10:55:31.109Z,31.18
2019-02-21T10:56:31.520Z,30.57
2019-02-21T10:57:31.142Z,30.35
2019-02-21T10:58:31.099Z,30.55
2019-02-21T10:59:31.066Z,30.77
2019-02-21T11:00:31.049Z,30.78
2019-02-21T11:01:31.060Z,30.78
2019-02-21T11:02:31.039Z,31.28
2019-02-21T11:03:31.022Z,31.38
2019-02-21T11:04:31.007Z,31.07
2019-02-21T11:05:31.007Z,31.12
2019-02-21T11:06:31.012Z,32.71
2019-02-21T11:07:30.974Z,32.24
2019-02-21T11:08:30.965Z,32.46
2019-02-21T11:09:30.992Z,33.37
2019-02-21T11:10:30.966Z,33.98
2019-02-21T11:11:30.934Z,33.58
2019-02-21T11:12:30.932Z,32.64
2019-02-21T11:13:30.948Z,31.21
2019-02-21T11:14:30.904Z,31.38
2019-02-21T11:15:30.895Z,30.55
2019-02-21T11:16:30.911Z,30.45
2019-02-21T11:17:30.874Z,29.46
2019-02-21T11:18:30.862Z,30.55
2019-02-21T11:19:30.853Z,30.14
2019-02-21T11:20:30.839Z,29.80
2019-02-21T11:21:30.849Z,30.93
2019-02-21T11:22:30.844Z,30.73
2019-02-21T11:23:30.804Z,29.32
2019-02-21T11:24:30.808Z,30.51
2019-02-21T11:25:30.781Z,31.28
2019-02-21T11:26:30.810Z,28.45
2019-02-21T11:27:30.761Z,29.55
2019-02-21T11:28:30.776Z,27.95
2019-02-21T11:29:30.744Z,28.45
2019-02-21T11:30:30.734Z,27.34
2019-02-21T11:31:30.758Z,27.73
2019-02-21T11:32:30.712Z,26.62
2019-02-21T11:33:30.706Z,26.70
2019-02-21T11:34:30.684Z,26.73
2019-02-21T11:35:30.684Z,28.73
2019-02-21T11:36:30.703Z,28.11
2019-02-21T11:37:30.657Z,27.34
2019-02-21T11:38:30.649Z,28.50
2019-02-21T11:39:30.637Z,29.64
2019-02-21T11:40:30.625Z,30.64
2019-02-21T11:41:30.644Z,30.85
2019-02-21T11:42:30.602Z,30.98
2019-02-21T11:43:30.600Z,31.18
2019-02-21T11:44:30.594Z,30.97
2019-02-21T11:45:30.569Z,30.62
2019-02-21T11:46:30.592Z,29.47
2019-02-21T11:47:30.559Z,28.07
2019-02-21T11:48:30.542Z,28.89
2019-02-21T11:49:30.530Z,29.41
2019-02-21T11:50:30.540Z,30.34
2019-02-21T11:51:30.534Z,30.64
2019-02-21T11:52:30.498Z,31.14
2019-02-21T11:53:30.486Z,31.44
2019-02-21T11:54:30.475Z,31.35
2019-02-21T11:55:30.480Z,30.57
2019-02-21T11:56:30.484Z,31.87
2019-02-21T11:57:30.442Z,32.90
2019-02-21T11:58:30.438Z,31.37
2019-02-21T11:59:30.415Z,30.64
2019-02-21T12:00:30.504Z,30.85
2019-02-21T12:01:30.424Z,31.35
2019-02-21T12:02:38.598Z,30.47
2019-02-21T12:03:31.380Z,32.02
2019-02-21T12:04:30.396Z,33.12
2019-02-21T12:05:31.791Z,33.05
2019-02-21T12:06:30.389Z,33.67
2019-02-21T12:07:30.346Z,34.27
2019-02-21T12:08:30.330Z,33.55
2019-02-21T12:09:30.316Z,32.62
2019-02-21T12:10:30.310Z,32.23
2019-02-21T12:11:30.304Z,32.72
2019-02-21T12:12:30.312Z,31.67
2019-02-21T12:13:30.276Z,29.72
2019-02-21T12:14:30.269Z,28.47
2019-02-21T12:15:30.263Z,28.19
2019-02-21T12:16:30.281Z,29.43
2019-02-21T12:17:30.238Z,27.89
2019-02-21T12:18:30.222Z,28.27
2019-02-21T12:19:30.214Z,27.74
2019-02-21T12:20:30.204Z,27.83
2019-02-21T12:21:30.190Z,26.45
2019-02-21T12:22:30.215Z,27.83
2019-02-21T12:23:30.170Z,25.71
2019-02-21T12:24:30.153Z,25.99
2019-02-21T12:25:30.143Z,24.60
2019-02-21T12:26:30.153Z,25.19
2019-02-21T12:27:30.151Z,25.57
2019-02-21T12:28:30.114Z,25.46
2019-02-21T12:29:30.102Z,25.77
2019-02-21T12:30:30.093Z,23.60
2019-02-21T12:31:30.078Z,25.29
2019-02-21T12:32:30.099Z,25.68
2019-02-21T12:33:30.059Z,24.88
2019-02-21T12:34:30.054Z,24.49
2019-02-21T12:35:30.470Z,24.96
2019-02-21T12:36:30.025Z,24.58
2019-02-21T12:37:30.038Z,24.07
2019-02-21T12:38:30.011Z,24.16
2019-02-21T12:39:29.996Z,22.85
2019-02-21T12:40:29.982Z,22.55
2019-02-21T12:41:29.980Z,22.24
2019-02-21T12:42:29.991Z,23.82
2019-02-21T12:43:29.959Z,25.57
2019-02-21T12:44:29.951Z,26.73
2019-02-21T12:45:30.205Z,27.14
2019-02-21T12:46:29.924Z,26.75
2019-02-21T12:47:29.939Z,28.37
2019-02-21T12:48:29.907Z,27.19
2019-02-21T12:49:29.906Z,27.36
2019-02-21T12:50:29.883Z,26.86
2019-02-21T12:51:29.869Z,25.65
2019-02-21T12:52:29.886Z,25.02